sensor_id;sensor_type;location;lat;lon;timestamp;temperature;humidity
22917;DHT22;11624;53.250;7.456;2023-03-01T00:01:47;5.00;50.04
22917;DHT22;11624;53.250;7.456;2023-03-01T00:04:17;4.96;50.04
22917;DHT22;11624;53.250;7.456;2023-03-01T00:06:45;4.94;49.99
22917;DHT22;11624;53.250;7.456;2023-03-01T00:09:14;4.93;49.98
22917;DHT22;11624;53.250;7.456;2023-03-01T00:11:43;4.91;50.05
22917;DHT22;11624;53.250;7.456;2023-03-01T00:14:13;4.89;50.21
22917;DHT22;11624;53.250;7.456;2023-03-01T00:16:44;4.90;50.30
22917;DHT22;11624;53.250;7.456;2023-03-01T00:19:14;4.86;50.32
22917;DHT22;11624;53.250;7.456;2023-03-01T00:21:44;4.83;50.38
22917;DHT22;11624;53.250;7.456;2023-03-01T00:24:12;4.82;50.42
22917;DHT22;11624;53.250;7.456;2023-03-01T00:26:40;4.83;50.42
22917;DHT22;11624;53.250;7.456;2023-03-01T00:29:08;4.81;50.44
22917;DHT22;11624;53.250;7.456;2023-03-01T00:31:36;4.80;50.39
22917;DHT22;11624;53.250;7.456;2023-03-01T00:34:05;4.78;50.37
22917;DHT22;11624;53.250;7.456;2023-03-01T00:36:34;4.74;50.76
22917;DHT22;11624;53.250;7.456;2023-03-01T00:39:07;4.69;50.75
22917;DHT22;11624;53.250;7.456;2023-03-01T00:41:37;4.71;50.73
22917;DHT22;11624;53.250;7.456;2023-03-01T00:44:07;4.65;50.97
22917;DHT22;11624;53.250;7.456;2023-03-01T00:46:36;4.65;50.87
22917;DHT22;11624;53.250;7.456;2023-03-01T00:49:04;4.64;50.78
22917;DHT22;11624;53.250;7.456;2023-03-01T00:51:32;4.64;50.84
22917;DHT22;11624;53.250;7.456;2023-03-01T00:54:03;4.63;50.82
22917;DHT22;11624;53.250;7.456;2023-03-01T00:56:31;4.62;50.74
22917;DHT22;11624;53.250;7.456;2023-03-01T00:59:00;4.61;50.76
22917;DHT22;11624;53.250;7.456;2023-03-01T01:01:30;4.60;50.75
22917;DHT22;11624;53.250;7.456;2023-03-01T01:04:00;4.60;50.66
22917;DHT22;11624;53.250;7.456;2023-03-01T01:06:30;4.56;50.74
22917;DHT22;11624;53.250;7.456;2023-03-01T01:09:00;4.52;50.80
22917;DHT22;11624;53.250;7.456;2023-03-01T01:11:30;4.51;50.82
22917;DHT22;11624;53.250;7.456;2023-03-01T01:13:59;4.49;50.78
22917;DHT22;11624;53.250;7.456;2023-03-01T01:16:29;4.48;50.76
22917;DHT22;11624;53.250;7.456;2023-03-01T01:18:57;4.47;50.71
22917;DHT22;11624;53.250;7.456;2023-03-01T01:21:27;4.46;50.71
22917;DHT22;11624;53.250;7.456;2023-03-01T01:23:56;4.44;50.72
22917;DHT22;11624;53.250;7.456;2023-03-01T01:26:26;4.41;50.74
22917;DHT22;11624;53.250;7.456;2023-03-01T01:28:57;4.38;50.77
22917;DHT22;11624;53.250;7.456;2023-03-01T01:31:26;4.36;50.98
22917;DHT22;11624;53.250;7.456;2023-03-01T01:33:55;4.36;51.02
22917;DHT22;11624;53.250;7.456;2023-03-01T01:36:24;4.36;50.92
22917;DHT22;11624;53.250;7.456;2023-03-01T01:38:52;4.33;50.95
22917;DHT22;11624;53.250;7.456;2023-03-01T01:41:21;4.33;50.98
22917;DHT22;11624;53.250;7.456;2023-03-01T01:46:35;4.28;50.97
22917;DHT22;11624;53.250;7.456;2023-03-01T01:49:07;4.29;50.97
22917;DHT22;11624;53.250;7.456;2023-03-01T01:51:38;4.26;50.93
22917;DHT22;11624;53.250;7.456;2023-03-01T01:54:10;4.22;50.88
22917;DHT22;11624;53.250;7.456;2023-03-01T01:56:43;4.20;50.95
22917;DHT22;11624;53.250;7.456;2023-03-01T01:59:13;4.19;51.02
22917;DHT22;11624;53.250;7.456;2023-03-01T02:01:43;4.19;51.01
22917;DHT22;11624;53.250;7.456;2023-03-01T02:04:11;4.16;51.15
22917;DHT22;11624;53.250;7.456;2023-03-01T02:06:43;4.15;51.12
22917;DHT22;11624;53.250;7.456;2023-03-01T02:09:14;4.14;51.24
22917;DHT22;11624;53.250;7.456;2023-03-01T02:11:44;4.12;51.32
22917;DHT22;11624;53.250;7.456;2023-03-01T02:14:14;4.10;51.28
22917;DHT22;11624;53.250;7.456;2023-03-01T02:16:44;4.09;51.43
22917;DHT22;11624;53.250;7.456;2023-03-01T02:19:17;4.09;51.49
22917;DHT22;11624;53.250;7.456;2023-03-01T02:21:52;4.09;51.41
22917;DHT22;11624;53.250;7.456;2023-03-01T02:24:31;4.07;51.46
22917;DHT22;11624;53.250;7.456;2023-03-01T02:27:01;4.05;51.44
22917;DHT22;11624;53.250;7.456;2023-03-01T02:29:31;3.98;52.26
22917;DHT22;11624;53.250;7.456;2023-03-01T02:32:01;4.00;52.08
22917;DHT22;11624;53.250;7.456;2023-03-01T02:34:30;4.00;52.14
22917;DHT22;11624;53.250;7.456;2023-03-01T02:37:01;3.99;52.02
22917;DHT22;11624;53.250;7.456;2023-03-01T02:39:34;3.92;52.63
22917;DHT22;11624;53.250;7.456;2023-03-01T02:42:04;3.99;52.26
22917;DHT22;11624;53.250;7.456;2023-03-01T02:44:34;4.02;52.04
22917;DHT22;11624;53.250;7.456;2023-03-01T02:47:03;4.02;52.11
22917;DHT22;11624;53.250;7.456;2023-03-01T02:49:34;4.03;51.98
22917;DHT22;11624;53.250;7.456;2023-03-01T02:52:40;3.99;51.69
22917;DHT22;11624;53.250;7.456;2023-03-01T02:55:11;4.01;51.87
22917;DHT22;11624;53.250;7.456;2023-03-01T02:57:41;4.00;52.02
22917;DHT22;11624;53.250;7.456;2023-03-01T03:00:14;3.98;52.00
22917;DHT22;11624;53.250;7.456;2023-03-01T03:02:46;4.00;51.97
22917;DHT22;11624;53.250;7.456;2023-03-01T03:05:24;3.99;51.88
22917;DHT22;11624;53.250;7.456;2023-03-01T03:07:56;3.97;51.82
22917;DHT22;11624;53.250;7.456;2023-03-01T03:10:26;3.97;51.74
22917;DHT22;11624;53.250;7.456;2023-03-01T03:12:57;3.94;51.72
22917;DHT22;11624;53.250;7.456;2023-03-01T03:15:27;3.94;51.79
22917;DHT22;11624;53.250;7.456;2023-03-01T03:17:57;3.91;51.82
22917;DHT22;11624;53.250;7.456;2023-03-01T03:20:27;3.92;51.85
22917;DHT22;11624;53.250;7.456;2023-03-01T03:22:57;3.90;51.98
22917;DHT22;11624;53.250;7.456;2023-03-01T03:25:27;3.90;51.95
22917;DHT22;11624;53.250;7.456;2023-03-01T03:27:56;3.89;51.91
22917;DHT22;11624;53.250;7.456;2023-03-01T03:30:28;3.88;51.92
22917;DHT22;11624;53.250;7.456;2023-03-01T03:32:57;3.88;51.79
22917;DHT22;11624;53.250;7.456;2023-03-01T03:35:28;3.84;51.83
22917;DHT22;11624;53.250;7.456;2023-03-01T03:37:58;3.83;51.75
22917;DHT22;11624;53.250;7.456;2023-03-01T03:40:32;3.79;51.66
22917;DHT22;11624;53.250;7.456;2023-03-01T03:43:01;3.78;51.65
22917;DHT22;11624;53.250;7.456;2023-03-01T03:45:31;3.77;51.69
22917;DHT22;11624;53.250;7.456;2023-03-01T03:48:00;3.74;51.75
22917;DHT22;11624;53.250;7.456;2023-03-01T03:50:29;3.74;51.66
22917;DHT22;11624;53.250;7.456;2023-03-01T03:53:00;3.72;51.64
22917;DHT22;11624;53.250;7.456;2023-03-01T03:55:28;3.69;51.66
22917;DHT22;11624;53.250;7.456;2023-03-01T03:57:58;3.64;51.84
22917;DHT22;11624;53.250;7.456;2023-03-01T04:00:28;3.64;51.99
22917;DHT22;11624;53.250;7.456;2023-03-01T04:02:58;3.71;51.91
22917;DHT22;11624;53.250;7.456;2023-03-01T04:05:27;3.73;51.88
22917;DHT22;11624;53.250;7.456;2023-03-01T04:07:56;3.77;51.95
22917;DHT22;11624;53.250;7.456;2023-03-01T04:10:32;3.79;52.07
22917;DHT22;11624;53.250;7.456;2023-03-01T04:13:01;3.86;52.15
22917;DHT22;11624;53.250;7.456;2023-03-01T04:15:30;3.92;52.20
22917;DHT22;11624;53.250;7.456;2023-03-01T04:18:00;3.99;52.27
22917;DHT22;11624;53.250;7.456;2023-03-01T04:20:30;4.04;52.40
22917;DHT22;11624;53.250;7.456;2023-03-01T04:23:01;4.10;52.50
22917;DHT22;11624;53.250;7.456;2023-03-01T04:25:38;4.17;52.56
22917;DHT22;11624;53.250;7.456;2023-03-01T04:28:07;4.24;52.59
22917;DHT22;11624;53.250;7.456;2023-03-01T04:30:35;4.32;52.59
22917;DHT22;11624;53.250;7.456;2023-03-01T04:33:06;4.38;52.56
22917;DHT22;11624;53.250;7.456;2023-03-01T04:35:35;4.45;52.55
22917;DHT22;11624;53.250;7.456;2023-03-01T04:38:04;4.49;52.51
22917;DHT22;11624;53.250;7.456;2023-03-01T04:40:33;4.52;52.51
22917;DHT22;11624;53.250;7.456;2023-03-01T04:43:02;4.57;52.48
22917;DHT22;11624;53.250;7.456;2023-03-01T04:45:32;4.59;52.50
22917;DHT22;11624;53.250;7.456;2023-03-01T04:48:01;4.59;52.59
22917;DHT22;11624;53.250;7.456;2023-03-01T04:50:31;4.63;52.67
22917;DHT22;11624;53.250;7.456;2023-03-01T04:52:59;4.67;52.71
22917;DHT22;11624;53.250;7.456;2023-03-01T04:55:27;4.72;52.71
22917;DHT22;11624;53.250;7.456;2023-03-01T04:57:56;4.74;52.74
22917;DHT22;11624;53.250;7.456;2023-03-01T05:00:24;4.76;52.75
22917;DHT22;11624;53.250;7.456;2023-03-01T05:02:54;4.77;52.84
22917;DHT22;11624;53.250;7.456;2023-03-01T05:05:25;4.77;52.86
22917;DHT22;11624;53.250;7.456;2023-03-01T05:07:56;4.77;52.84
22917;DHT22;11624;53.250;7.456;2023-03-01T05:10:26;4.76;52.91
22917;DHT22;11624;53.250;7.456;2023-03-01T05:12:55;4.78;52.94
22917;DHT22;11624;53.250;7.456;2023-03-01T05:15:25;4.81;52.92
22917;DHT22;11624;53.250;7.456;2023-03-01T05:17:53;4.82;52.87
22917;DHT22;11624;53.250;7.456;2023-03-01T05:20:21;4.82;52.81
22917;DHT22;11624;53.250;7.456;2023-03-01T05:22:51;4.82;52.78
22917;DHT22;11624;53.250;7.456;2023-03-01T05:25:21;4.81;52.85
22917;DHT22;11624;53.250;7.456;2023-03-01T05:27:49;4.78;52.89
22917;DHT22;11624;53.250;7.456;2023-03-01T05:30:18;4.76;52.98
22917;DHT22;11624;53.250;7.456;2023-03-01T05:32:48;4.75;52.96
22917;DHT22;11624;53.250;7.456;2023-03-01T05:35:17;4.73;52.87
22917;DHT22;11624;53.250;7.456;2023-03-01T05:37:47;4.71;52.80
22917;DHT22;11624;53.250;7.456;2023-03-01T05:40:18;4.67;52.78
22917;DHT22;11624;53.250;7.456;2023-03-01T05:42:49;4.61;52.76
22917;DHT22;11624;53.250;7.456;2023-03-01T05:45:17;4.54;52.77
22917;DHT22;11624;53.250;7.456;2023-03-01T05:47:47;4.52;52.78
22917;DHT22;11624;53.250;7.456;2023-03-01T05:50:17;4.39;53.24
22917;DHT22;11624;53.250;7.456;2023-03-01T05:52:47;4.28;53.59
22917;DHT22;11624;53.250;7.456;2023-03-01T05:55:17;4.23;53.75
22917;DHT22;11624;53.250;7.456;2023-03-01T05:57:47;4.19;53.87
22917;DHT22;11624;53.250;7.456;2023-03-01T06:00:18;4.14;53.91
22917;DHT22;11624;53.250;7.456;2023-03-01T06:02:49;4.12;53.94
22917;DHT22;11624;53.250;7.456;2023-03-01T06:05:18;4.13;53.91
22917;DHT22;11624;53.250;7.456;2023-03-01T06:07:46;4.10;53.92
22917;DHT22;11624;53.250;7.456;2023-03-01T06:10:14;4.14;53.86
22917;DHT22;11624;53.250;7.456;2023-03-01T06:12:43;4.18;53.76
22917;DHT22;11624;53.250;7.456;2023-03-01T06:15:15;4.18;53.71
22917;DHT22;11624;53.250;7.456;2023-03-01T06:17:45;4.21;53.75
22917;DHT22;11624;53.250;7.456;2023-03-01T06:20:16;4.27;53.67
22917;DHT22;11624;53.250;7.456;2023-03-01T06:22:45;4.23;53.84
22917;DHT22;11624;53.250;7.456;2023-03-01T06:25:15;4.27;53.94
22917;DHT22;11624;53.250;7.456;2023-03-01T06:27:44;4.28;53.93
22917;DHT22;11624;53.250;7.456;2023-03-01T06:30:15;4.30;53.91
22917;DHT22;11624;53.250;7.456;2023-03-01T06:32:44;4.33;53.97
22917;DHT22;11624;53.250;7.456;2023-03-01T06:35:14;4.36;54.03
22917;DHT22;11624;53.250;7.456;2023-03-01T06:37:45;4.35;54.05
22917;DHT22;11624;53.250;7.456;2023-03-01T06:40:14;4.34;54.07
22917;DHT22;11624;53.250;7.456;2023-03-01T06:42:46;4.36;54.05
22917;DHT22;11624;53.250;7.456;2023-03-01T06:45:18;4.38;53.96
22917;DHT22;11624;53.250;7.456;2023-03-01T06:47:46;4.45;53.86
22917;DHT22;11624;53.250;7.456;2023-03-01T06:50:16;4.46;53.78
22917;DHT22;11624;53.250;7.456;2023-03-01T06:52:45;4.48;53.75
22917;DHT22;11624;53.250;7.456;2023-03-01T06:55:12;4.49;53.72
22917;DHT22;11624;53.250;7.456;2023-03-01T06:57:40;4.53;53.70
22917;DHT22;11624;53.250;7.456;2023-03-01T07:00:10;4.56;53.68
22917;DHT22;11624;53.250;7.456;2023-03-01T07:02:39;4.59;53.68
22917;DHT22;11624;53.250;7.456;2023-03-01T07:05:08;4.52;53.85
22917;DHT22;11624;53.250;7.456;2023-03-01T07:07:36;4.45;54.17
22917;DHT22;11624;53.250;7.456;2023-03-01T07:10:05;4.47;54.23
22917;DHT22;11624;53.250;7.456;2023-03-01T07:12:34;4.53;54.16
22917;DHT22;11624;53.250;7.456;2023-03-01T07:15:02;4.58;54.20
22917;DHT22;11624;53.250;7.456;2023-03-01T07:17:31;4.61;54.25
22917;DHT22;11624;53.250;7.456;2023-03-01T07:20:00;4.64;54.32
22917;DHT22;11624;53.250;7.456;2023-03-01T07:22:28;4.68;54.37
22917;DHT22;11624;53.250;7.456;2023-03-01T07:25:00;4.75;54.30
22917;DHT22;11624;53.250;7.456;2023-03-01T07:27:28;4.86;54.37
22917;DHT22;11624;53.250;7.456;2023-03-01T07:29:56;4.95;54.36
22917;DHT22;11624;53.250;7.456;2023-03-01T07:32:24;5.05;54.43
22917;DHT22;11624;53.250;7.456;2023-03-01T07:34:52;5.16;54.49
22917;DHT22;11624;53.250;7.456;2023-03-01T07:37:22;5.27;54.86
22917;DHT22;11624;53.250;7.456;2023-03-01T07:39:50;5.52;55.21
22917;DHT22;11624;53.250;7.456;2023-03-01T07:42:18;5.96;55.29
22917;DHT22;11624;53.250;7.456;2023-03-01T07:44:46;6.55;54.97
22917;DHT22;11624;53.250;7.456;2023-03-01T07:47:14;7.12;54.31
22917;DHT22;11624;53.250;7.456;2023-03-01T07:49:42;7.64;53.59
22917;DHT22;11624;53.250;7.456;2023-03-01T07:52:10;8.07;52.87
22917;DHT22;11624;53.250;7.456;2023-03-01T07:54:42;8.38;52.39
22917;DHT22;11624;53.250;7.456;2023-03-01T07:57:11;8.65;51.72
22917;DHT22;11624;53.250;7.456;2023-03-01T07:59:39;8.81;51.17
22917;DHT22;11624;53.250;7.456;2023-03-01T08:02:08;8.86;50.91
22917;DHT22;11624;53.250;7.456;2023-03-01T08:04:36;9.01;51.09
22917;DHT22;11624;53.250;7.456;2023-03-01T08:07:05;9.05;51.73
22917;DHT22;11624;53.250;7.456;2023-03-01T08:09:34;8.98;52.96
22917;DHT22;11624;53.250;7.456;2023-03-01T08:12:04;8.94;53.96
22917;DHT22;11624;53.250;7.456;2023-03-01T08:14:33;9.00;54.84
22917;DHT22;11624;53.250;7.456;2023-03-01T08:17:01;9.21;54.75
22917;DHT22;11624;53.250;7.456;2023-03-01T08:19:30;9.51;53.67
22917;DHT22;11624;53.250;7.456;2023-03-01T08:21:58;9.74;51.98
22917;DHT22;11624;53.250;7.456;2023-03-01T08:24:26;9.90;51.08
22917;DHT22;11624;53.250;7.456;2023-03-01T08:26:54;10.07;49.66
22917;DHT22;11624;53.250;7.456;2023-03-01T08:29:24;10.11;49.24
22917;DHT22;11624;53.250;7.456;2023-03-01T08:31:52;10.03;48.53
22917;DHT22;11624;53.250;7.456;2023-03-01T08:34:20;9.79;48.65
22917;DHT22;11624;53.250;7.456;2023-03-01T08:36:48;9.60;49.86
22917;DHT22;11624;53.250;7.456;2023-03-01T08:39:19;9.59;50.80
22917;DHT22;11624;53.250;7.456;2023-03-01T08:41:47;9.59;51.17
22917;DHT22;11624;53.250;7.456;2023-03-01T08:44:15;9.61;51.41
22917;DHT22;11624;53.250;7.456;2023-03-01T08:46:45;9.70;51.15
22917;DHT22;11624;53.250;7.456;2023-03-01T08:49:16;9.68;50.61
22917;DHT22;11624;53.250;7.456;2023-03-01T08:51:45;9.82;50.46
22917;DHT22;11624;53.250;7.456;2023-03-01T08:54:15;10.14;50.79
22917;DHT22;11624;53.250;7.456;2023-03-01T08:56:45;10.53;50.46
22917;DHT22;11624;53.250;7.456;2023-03-01T08:59:15;10.83;49.68
22917;DHT22;11624;53.250;7.456;2023-03-01T09:01:45;11.04;49.28
22917;DHT22;11624;53.250;7.456;2023-03-01T09:04:14;11.29;49.11
22917;DHT22;11624;53.250;7.456;2023-03-01T09:06:42;11.49;48.66
22917;DHT22;11624;53.250;7.456;2023-03-01T09:09:13;11.70;48.69
22917;DHT22;11624;53.250;7.456;2023-03-01T09:11:43;11.68;47.55
22917;DHT22;11624;53.250;7.456;2023-03-01T09:14:13;11.77;47.13
22917;DHT22;11624;53.250;7.456;2023-03-01T09:16:42;11.93;46.80
22917;DHT22;11624;53.250;7.456;2023-03-01T09:19:11;12.19;47.73
22917;DHT22;11624;53.250;7.456;2023-03-01T09:21:39;12.48;47.97
22917;DHT22;11624;53.250;7.456;2023-03-01T09:24:13;12.80;47.01
22917;DHT22;11624;53.250;7.456;2023-03-01T09:26:42;13.22;48.17
22917;DHT22;11624;53.250;7.456;2023-03-01T09:29:14;13.69;47.36
22917;DHT22;11624;53.250;7.456;2023-03-01T09:31:43;14.14;47.13
22917;DHT22;11624;53.250;7.456;2023-03-01T09:34:12;14.74;44.67
22917;DHT22;11624;53.250;7.456;2023-03-01T09:36:42;15.36;43.26
22917;DHT22;11624;53.250;7.456;2023-03-01T09:39:10;15.88;42.29
22917;DHT22;11624;53.250;7.456;2023-03-01T09:41:50;16.41;39.85
22917;DHT22;11624;53.250;7.456;2023-03-01T09:44:29;16.92;37.10
22917;DHT22;11624;53.250;7.456;2023-03-01T09:46:59;17.29;37.17
22917;DHT22;11624;53.250;7.456;2023-03-01T09:49:32;17.64;36.18
22917;DHT22;11624;53.250;7.456;2023-03-01T09:52:06;17.93;34.95
22917;DHT22;11624;53.250;7.456;2023-03-01T09:54:39;18.28;34.39
22917;DHT22;11624;53.250;7.456;2023-03-01T09:57:18;18.61;34.73
22917;DHT22;11624;53.250;7.456;2023-03-01T10:00:00;18.91;34.15
22917;DHT22;11624;53.250;7.456;2023-03-01T10:02:37;19.13;32.45
22917;DHT22;11624;53.250;7.456;2023-03-01T10:05:18;19.28;32.26
22917;DHT22;11624;53.250;7.456;2023-03-01T10:07:54;19.54;31.57
22917;DHT22;11624;53.250;7.456;2023-03-01T10:10:28;19.38;30.83
22917;DHT22;11624;53.250;7.456;2023-03-01T10:13:02;19.26;32.15
22917;DHT22;11624;53.250;7.456;2023-03-01T10:15:35;19.54;31.88
22917;DHT22;11624;53.250;7.456;2023-03-01T10:18:10;19.82;30.16
22917;DHT22;11624;53.250;7.456;2023-03-01T10:20:46;19.75;30.23
22917;DHT22;11624;53.250;7.456;2023-03-01T10:23:16;19.71;30.64
22917;DHT22;11624;53.250;7.456;2023-03-01T10:26:11;19.81;30.33
22917;DHT22;11624;53.250;7.456;2023-03-01T10:28:50;20.05;28.84
22917;DHT22;11624;53.250;7.456;2023-03-01T10:31:24;20.19;28.36
22917;DHT22;11624;53.250;7.456;2023-03-01T10:33:56;20.42;29.01
22917;DHT22;11624;53.250;7.456;2023-03-01T10:36:27;20.48;27.31
22917;DHT22;11624;53.250;7.456;2023-03-01T10:38:56;20.31;26.94
22917;DHT22;11624;53.250;7.456;2023-03-01T10:41:26;20.31;27.00
22917;DHT22;11624;53.250;7.456;2023-03-01T10:43:56;20.51;26.71
22917;DHT22;11624;53.250;7.456;2023-03-01T10:46:26;20.65;26.39
22917;DHT22;11624;53.250;7.456;2023-03-01T10:49:07;20.99;26.49
22917;DHT22;11624;53.250;7.456;2023-03-01T10:51:40;21.32;26.10
22917;DHT22;11624;53.250;7.456;2023-03-01T10:54:17;21.34;25.09
22917;DHT22;11624;53.250;7.456;2023-03-01T10:56:47;21.21;25.25
22917;DHT22;11624;53.250;7.456;2023-03-01T10:59:22;21.35;25.41
22917;DHT22;11624;53.250;7.456;2023-03-01T11:02:15;21.45;25.27
22917;DHT22;11624;53.250;7.456;2023-03-01T11:04:59;21.49;25.60
22917;DHT22;11624;53.250;7.456;2023-03-01T11:07:29;21.76;25.11
22917;DHT22;11624;53.250;7.456;2023-03-01T11:09:57;22.03;24.38
22917;DHT22;11624;53.250;7.456;2023-03-01T11:12:26;22.08;23.85
22917;DHT22;11624;53.250;7.456;2023-03-01T11:14:57;22.32;22.77
22917;DHT22;11624;53.250;7.456;2023-03-01T11:17:28;22.20;23.85
22917;DHT22;11624;53.250;7.456;2023-03-01T11:20:10;22.04;23.36
22917;DHT22;11624;53.250;7.456;2023-03-01T11:22:47;22.16;23.91
22917;DHT22;11624;53.250;7.456;2023-03-01T11:25:18;22.52;21.92
22917;DHT22;11624;53.250;7.456;2023-03-01T11:27:47;22.31;23.15
22917;DHT22;11624;53.250;7.456;2023-03-01T11:30:19;22.60;22.41
22917;DHT22;11624;53.250;7.456;2023-03-01T11:32:56;22.38;23.22
22917;DHT22;11624;53.250;7.456;2023-03-01T11:35:28;22.62;21.89
22917;DHT22;11624;53.250;7.456;2023-03-01T11:38:14;22.56;21.59
22917;DHT22;11624;53.250;7.456;2023-03-01T11:40:46;22.68;21.53
22917;DHT22;11624;53.250;7.456;2023-03-01T11:43:21;22.73;22.17
22917;DHT22;11624;53.250;7.456;2023-03-01T11:46:05;23.11;21.15
22917;DHT22;11624;53.250;7.456;2023-03-01T11:48:50;23.05;21.46
22917;DHT22;11624;53.250;7.456;2023-03-01T11:51:25;23.01;21.50
22917;DHT22;11624;53.250;7.456;2023-03-01T11:54:06;22.83;21.22
22917;DHT22;11624;53.250;7.456;2023-03-01T11:56:40;23.00;22.18
22917;DHT22;11624;53.250;7.456;2023-03-01T11:59:24;23.34;20.81
22917;DHT22;11624;53.250;7.456;2023-03-01T12:02:10;23.23;20.34
22917;DHT22;11624;53.250;7.456;2023-03-01T12:04:58;23.28;21.21
22917;DHT22;11624;53.250;7.456;2023-03-01T12:07:35;23.62;20.34
22917;DHT22;11624;53.250;7.456;2023-03-01T12:10:20;23.70;20.14
22917;DHT22;11624;53.250;7.456;2023-03-01T12:12:58;23.75;20.12
22917;DHT22;11624;53.250;7.456;2023-03-01T12:15:46;23.70;20.05
22917;DHT22;11624;53.250;7.456;2023-03-01T12:18:32;23.73;19.73
22917;DHT22;11624;53.250;7.456;2023-03-01T12:21:13;23.67;20.44
22917;DHT22;11624;53.250;7.456;2023-03-01T12:24:07;23.43;20.46
22917;DHT22;11624;53.250;7.456;2023-03-01T12:26:44;23.71;20.50
22917;DHT22;11624;53.250;7.456;2023-03-01T12:29:25;23.83;19.94
22917;DHT22;11624;53.250;7.456;2023-03-01T12:32:29;23.71;20.54
22917;DHT22;11624;53.250;7.456;2023-03-01T12:35:23;23.55;20.89
22917;DHT22;11624;53.250;7.456;2023-03-01T12:38:01;23.65;20.80
22917;DHT22;11624;53.250;7.456;2023-03-01T12:40:46;23.80;20.61
22917;DHT22;11624;53.250;7.456;2023-03-01T12:43:29;23.72;19.78
22917;DHT22;11624;53.250;7.456;2023-03-01T12:46:21;23.76;20.17
22917;DHT22;11624;53.250;7.456;2023-03-01T12:49:02;23.43;20.21
22917;DHT22;11624;53.250;7.456;2023-03-01T12:51:35;23.40;20.97
22917;DHT22;11624;53.250;7.456;2023-03-01T12:54:10;23.36;20.86
22917;DHT22;11624;53.250;7.456;2023-03-01T12:56:41;23.27;20.95
22917;DHT22;11624;53.250;7.456;2023-03-01T12:59:15;22.82;21.01
22917;DHT22;11624;53.250;7.456;2023-03-01T13:01:52;22.53;22.30
22917;DHT22;11624;53.250;7.456;2023-03-01T13:04:30;22.64;22.38
22917;DHT22;11624;53.250;7.456;2023-03-01T13:07:15;22.75;22.50
22917;DHT22;11624;53.250;7.456;2023-03-01T13:09:49;23.01;22.47
22917;DHT22;11624;53.250;7.456;2023-03-01T13:12:41;23.24;21.65
22917;DHT22;11624;53.250;7.456;2023-03-01T13:18:11;22.18;22.71
22917;DHT22;11624;53.250;7.456;2023-03-01T13:20:55;22.29;23.07
22917;DHT22;11624;53.250;7.456;2023-03-01T13:23:26;22.28;23.48
22917;DHT22;11624;53.250;7.456;2023-03-01T13:26:13;22.05;23.35
22917;DHT22;11624;53.250;7.456;2023-03-01T13:28:56;22.17;23.21
22917;DHT22;11624;53.250;7.456;2023-03-01T13:32:00;21.85;23.64
22917;DHT22;11624;53.250;7.456;2023-03-01T13:34:43;22.21;23.28
22917;DHT22;11624;53.250;7.456;2023-03-01T13:37:29;22.31;22.88
22917;DHT22;11624;53.250;7.456;2023-03-01T13:40:00;22.33;22.90
22917;DHT22;11624;53.250;7.456;2023-03-01T13:42:37;22.44;22.43
22917;DHT22;11624;53.250;7.456;2023-03-01T13:45:19;22.48;22.53
22917;DHT22;11624;53.250;7.456;2023-03-01T13:47:52;22.39;22.73
22917;DHT22;11624;53.250;7.456;2023-03-01T13:50:24;22.19;22.80
22917;DHT22;11624;53.250;7.456;2023-03-01T13:52:56;21.89;23.38
22917;DHT22;11624;53.250;7.456;2023-03-01T13:55:30;21.77;23.49
22917;DHT22;11624;53.250;7.456;2023-03-01T13:58:05;22.05;23.70
22917;DHT22;11624;53.250;7.456;2023-03-01T14:00:41;22.54;22.89
22917;DHT22;11624;53.250;7.456;2023-03-01T14:03:11;22.60;22.53
22917;DHT22;11624;53.250;7.456;2023-03-01T14:05:43;22.42;22.80
22917;DHT22;11624;53.250;7.456;2023-03-01T14:08:21;22.79;22.82
22917;DHT22;11624;53.250;7.456;2023-03-01T14:11:15;22.73;22.66
22917;DHT22;11624;53.250;7.456;2023-03-01T14:14:14;22.46;22.94
22917;DHT22;11624;53.250;7.456;2023-03-01T14:16:49;22.44;23.01
22917;DHT22;11624;53.250;7.456;2023-03-01T14:19:25;22.22;23.70
22917;DHT22;11624;53.250;7.456;2023-03-01T14:22:12;22.31;23.94
22917;DHT22;11624;53.250;7.456;2023-03-01T14:24:47;22.53;23.53
22917;DHT22;11624;53.250;7.456;2023-03-01T14:27:17;22.57;22.92
22917;DHT22;11624;53.250;7.456;2023-03-01T14:29:54;22.22;23.25
22917;DHT22;11624;53.250;7.456;2023-03-01T14:32:25;22.27;22.99
22917;DHT22;11624;53.250;7.456;2023-03-01T14:34:55;22.17;23.51
22917;DHT22;11624;53.250;7.456;2023-03-01T14:37:27;22.13;23.47
22917;DHT22;11624;53.250;7.456;2023-03-01T14:39:57;21.67;23.88
22917;DHT22;11624;53.250;7.456;2023-03-01T14:42:28;21.45;24.39
22917;DHT22;11624;53.250;7.456;2023-03-01T14:44:57;21.43;24.60
22917;DHT22;11624;53.250;7.456;2023-03-01T14:47:29;21.51;24.30
22917;DHT22;11624;53.250;7.456;2023-03-01T14:50:00;21.58;24.39
22917;DHT22;11624;53.250;7.456;2023-03-01T14:52:34;21.43;24.34
22917;DHT22;11624;53.250;7.456;2023-03-01T14:55:06;21.48;24.66
22917;DHT22;11624;53.250;7.456;2023-03-01T14:57:35;21.32;24.84
22917;DHT22;11624;53.250;7.456;2023-03-01T15:00:06;21.28;25.11
22917;DHT22;11624;53.250;7.456;2023-03-01T15:02:35;20.95;25.37
22917;DHT22;11624;53.250;7.456;2023-03-01T15:05:06;21.13;25.33
22917;DHT22;11624;53.250;7.456;2023-03-01T15:07:40;21.14;25.12
22917;DHT22;11624;53.250;7.456;2023-03-01T15:10:20;21.24;25.03
22917;DHT22;11624;53.250;7.456;2023-03-01T15:12:49;21.19;25.06
22917;DHT22;11624;53.250;7.456;2023-03-01T15:15:21;20.99;25.35
22917;DHT22;11624;53.250;7.456;2023-03-01T15:17:53;20.50;25.50
22917;DHT22;11624;53.250;7.456;2023-03-01T15:20:24;20.03;26.60
22917;DHT22;11624;53.250;7.456;2023-03-01T15:22:56;19.96;26.91
22917;DHT22;11624;53.250;7.456;2023-03-01T15:25:27;19.97;26.87
22917;DHT22;11624;53.250;7.456;2023-03-01T15:27:58;19.99;26.94
22917;DHT22;11624;53.250;7.456;2023-03-01T15:30:28;19.77;27.04
22917;DHT22;11624;53.250;7.456;2023-03-01T15:33:19;19.40;27.52
22917;DHT22;11624;53.250;7.456;2023-03-01T15:35:50;18.89;28.58
22917;DHT22;11624;53.250;7.456;2023-03-01T15:38:31;18.48;29.33
22917;DHT22;11624;53.250;7.456;2023-03-01T15:41:01;17.92;30.86
22917;DHT22;11624;53.250;7.456;2023-03-01T15:43:41;17.54;31.50
22917;DHT22;11624;53.250;7.456;2023-03-01T15:46:20;17.21;32.30
22917;DHT22;11624;53.250;7.456;2023-03-01T15:48:52;17.01;33.18
22917;DHT22;11624;53.250;7.456;2023-03-01T15:51:30;16.70;34.18
22917;DHT22;11624;53.250;7.456;2023-03-01T15:54:03;16.52;34.53
22917;DHT22;11624;53.250;7.456;2023-03-01T15:56:33;16.36;34.95
22917;DHT22;11624;53.250;7.456;2023-03-01T15:59:02;16.22;35.28
22917;DHT22;11624;53.250;7.456;2023-03-01T16:01:31;16.05;35.66
22917;DHT22;11624;53.250;7.456;2023-03-01T16:04:01;15.87;36.21
22917;DHT22;11624;53.250;7.456;2023-03-01T16:06:30;15.68;36.85
22917;DHT22;11624;53.250;7.456;2023-03-01T16:09:00;15.51;37.21
22917;DHT22;11624;53.250;7.456;2023-03-01T16:11:29;15.52;37.21
22917;DHT22;11624;53.250;7.456;2023-03-01T16:13:59;15.46;37.21
22917;DHT22;11624;53.250;7.456;2023-03-01T16:16:27;15.39;37.37
22917;DHT22;11624;53.250;7.456;2023-03-01T16:18:56;15.31;37.48